createdAt,value
2023-05-10T00:00:00.816Z,13.70
2023-05-10T00:00:13.294Z,13.70
2023-05-10T00:00:25.311Z,13.70
2023-05-10T00:00:37.068Z,13.70
2023-05-10T00:00:48.811Z,13.60
2023-05-10T00:01:00.632Z,13.60
2023-05-10T00:01:12.397Z,13.70
2023-05-10T00:01:24.602Z,13.70
2023-05-10T00:01:36.656Z,13.70
2023-05-10T00:01:48.513Z,13.70
2023-05-10T00:02:00.768Z,13.60
2023-05-10T00:02:12.789Z,13.60
2023-05-10T00:02:25.787Z,13.60
2023-05-10T00:02:37.562Z,13.60
2023-05-10T00:02:49.634Z,13.60
2023-05-10T00:03:01.590Z,13.60
2023-05-10T00:03:13.418Z,13.60
2023-05-10T00:03:25.458Z,13.60
2023-05-10T00:03:37.418Z,13.60
2023-05-10T00:03:49.312Z,13.60
2023-05-10T00:04:01.190Z,13.60
2023-05-10T00:04:13.145Z,13.60
2023-05-10T00:04:28.346Z,13.60
2023-05-10T00:04:40.038Z,13.60
2023-05-10T00:04:51.940Z,13.60
2023-05-10T00:05:03.951Z,13.60
2023-05-10T00:05:15.901Z,13.60
2023-05-10T00:05:27.675Z,13.60
2023-05-10T00:05:39.563Z,13.60
2023-05-10T00:05:51.532Z,13.60
2023-05-10T00:06:03.714Z,13.60
2023-05-10T00:06:15.412Z,13.60
2023-05-10T00:06:27.857Z,13.60
2023-05-10T00:06:39.546Z,13.60
2023-05-10T00:06:51.320Z,13.60
2023-05-10T00:07:03.167Z,13.50
2023-05-10T00:07:14.917Z,13.50
2023-05-10T00:07:26.634Z,13.60
2023-05-10T00:07:38.354Z,13.50
2023-05-10T00:07:50.140Z,13.50
2023-05-10T00:08:01.983Z,13.60
2023-05-10T00:08:13.734Z,13.50
2023-05-10T00:08:25.508Z,13.50
2023-05-10T00:08:37.332Z,13.50
2023-05-10T00:08:49.152Z,13.60
2023-05-10T00:09:00.911Z,13.60
2023-05-10T00:09:12.653Z,13.60
2023-05-10T00:09:25.003Z,13.60
2023-05-10T00:09:36.717Z,13.60
2023-05-10T00:09:48.493Z,13.60
2023-05-10T00:10:00.341Z,13.60
2023-05-10T00:10:12.398Z,13.60
2023-05-10T00:10:24.937Z,13.60
2023-05-10T00:10:38.315Z,13.60
2023-05-10T00:10:50.404Z,13.60
2023-05-10T00:11:02.258Z,13.60
2023-05-10T00:11:14.016Z,13.60
2023-05-10T00:11:25.737Z,13.60
2023-05-10T00:11:37.524Z,13.60
2023-05-10T00:11:49.241Z,13.60
2023-05-10T00:12:01.308Z,13.70
2023-05-10T00:12:13.117Z,13.70
2023-05-10T00:12:25.175Z,13.70
2023-05-10T00:12:36.891Z,13.70
2023-05-10T00:12:48.759Z,13.70
2023-05-10T00:13:00.672Z,13.70
2023-05-10T00:13:12.669Z,13.70
2023-05-10T00:13:25.080Z,13.70
2023-05-10T00:13:36.858Z,13.70
2023-05-10T00:13:48.648Z,13.70
2023-05-10T00:14:00.367Z,13.70
2023-05-10T00:14:12.636Z,13.70
2023-05-10T00:14:24.891Z,13.70
2023-05-10T00:14:36.669Z,13.70
2023-05-10T00:14:48.459Z,13.80
2023-05-10T00:15:00.805Z,13.70
2023-05-10T00:15:12.502Z,13.70
2023-05-10T00:15:24.909Z,13.70
2023-05-10T00:15:36.640Z,13.70
2023-05-10T00:15:48.334Z,13.70
2023-05-10T00:16:00.025Z,13.70
2023-05-10T00:16:13.104Z,13.70
2023-05-10T00:16:25.145Z,13.80
2023-05-10T00:16:36.883Z,13.80
2023-05-10T00:16:48.722Z,13.80
2023-05-10T00:17:00.645Z,13.80
2023-05-10T00:17:12.425Z,13.80
2023-05-10T00:17:24.332Z,13.80
2023-05-10T00:17:36.209Z,13.80
2023-05-10T00:17:48.052Z,13.80
2023-05-10T00:17:59.967Z,13.80
2023-05-10T00:18:12.054Z,13.80
2023-05-10T00:18:23.929Z,13.80
2023-05-10T00:18:35.867Z,13.80
2023-05-10T00:18:47.603Z,13.80
2023-05-10T00:18:59.470Z,13.80
2023-05-10T00:19:11.405Z,13.80
2023-05-10T00:19:23.172Z,13.80
2023-05-10T00:19:35.238Z,13.80
2023-05-10T00:19:46.977Z,13.80
2023-05-10T00:19:58.814Z,13.80
2023-05-10T00:20:11.367Z,13.80
2023-05-10T00:20:23.443Z,13.80
2023-05-10T00:20:35.293Z,13.80
2023-05-10T00:20:47.062Z,13.90
2023-05-10T00:20:58.790Z,13.80
2023-05-10T00:21:10.503Z,13.80
2023-05-10T00:21:22.187Z,13.80
2023-05-10T00:21:34.737Z,13.80
2023-05-10T00:21:46.551Z,13.80
2023-05-10T00:21:58.272Z,13.80
2023-05-10T00:22:10.127Z,13.80
2023-05-10T00:22:21.992Z,13.80
2023-05-10T00:22:34.455Z,13.80
2023-05-10T00:22:46.190Z,13.80
2023-05-10T00:22:57.921Z,13.80
2023-05-10T00:23:09.765Z,13.80
2023-05-10T00:23:21.590Z,13.80
2023-05-10T00:23:33.455Z,13.80
2023-05-10T00:23:45.298Z,13.80
2023-05-10T00:23:57.177Z,13.80
2023-05-10T00:24:08.884Z,13.80
2023-05-10T00:24:20.730Z,13.80
2023-05-10T00:24:32.567Z,13.80
2023-05-10T00:24:44.242Z,13.80
2023-05-10T00:24:56.089Z,13.80
2023-05-10T00:25:08.819Z,13.90
2023-05-10T00:25:22.614Z,13.90
2023-05-10T00:25:34.354Z,13.80
2023-05-10T00:25:46.231Z,13.80
2023-05-10T00:25:58.043Z,13.90
2023-05-10T00:26:09.901Z,13.90
2023-05-10T00:26:22.137Z,13.90
2023-05-10T00:26:33.984Z,13.90
2023-05-10T00:26:45.910Z,13.90
2023-05-10T00:26:57.758Z,13.90
2023-05-10T00:27:09.657Z,13.90
2023-05-10T00:27:21.412Z,13.80
2023-05-10T00:27:33.099Z,13.80
2023-05-10T00:27:44.811Z,13.80
2023-05-10T00:27:58.070Z,13.80
2023-05-10T00:28:10.034Z,13.80
2023-05-10T00:28:21.767Z,13.80
2023-05-10T00:28:33.606Z,13.80
2023-05-10T00:28:45.584Z,13.90
2023-05-10T00:28:57.899Z,13.90
2023-05-10T00:29:09.652Z,13.80
2023-05-10T00:29:21.437Z,13.80
2023-05-10T00:29:34.064Z,13.80
2023-05-10T00:29:45.803Z,13.90
2023-05-10T00:29:57.563Z,13.80
2023-05-10T00:30:10.238Z,13.90
2023-05-10T00:30:22.082Z,13.90
2023-05-10T00:30:33.769Z,13.90
2023-05-10T00:30:45.703Z,13.90
2023-05-10T00:30:57.445Z,13.90
2023-05-10T00:31:09.169Z,13.90
2023-05-10T00:31:20.987Z,13.90
2023-05-10T00:31:32.718Z,13.90
2023-05-10T00:31:44.496Z,13.90
2023-05-10T00:31:56.361Z,13.90
2023-05-10T00:32:08.180Z,13.90
2023-05-10T00:32:20.062Z,13.90
2023-05-10T00:32:32.075Z,13.90
2023-05-10T00:32:44.646Z,13.90
2023-05-10T00:32:56.469Z,13.90
2023-05-10T00:33:08.381Z,13.80
2023-05-10T00:33:20.220Z,13.80
2023-05-10T00:33:31.947Z,13.80
2023-05-10T00:33:43.839Z,13.80
2023-05-10T00:33:56.018Z,13.80
2023-05-10T00:34:07.887Z,13.80
2023-05-10T00:34:19.597Z,13.80
2023-05-10T00:34:31.771Z,13.80
2023-05-10T00:34:43.498Z,13.80
2023-05-10T00:34:55.788Z,13.80
2023-05-10T00:35:08.510Z,13.80
2023-05-10T00:35:20.365Z,13.80
2023-05-10T00:35:32.107Z,13.80
2023-05-10T00:35:43.970Z,13.80
2023-05-10T00:35:55.637Z,13.80
2023-05-10T00:36:08.443Z,13.80
2023-05-10T00:36:20.431Z,13.80
2023-05-10T00:36:32.293Z,13.80
2023-05-10T00:36:44.075Z,13.80
2023-05-10T00:36:55.999Z,13.80
2023-05-10T00:37:07.820Z,13.80
2023-05-10T00:37:19.477Z,13.80
2023-05-10T00:37:31.219Z,13.80
2023-05-10T00:37:43.362Z,13.80
2023-05-10T00:37:55.105Z,13.80
2023-05-10T00:38:07.017Z,13.80
2023-05-10T00:38:18.814Z,13.80
2023-05-10T00:38:30.542Z,13.80
2023-05-10T00:38:42.227Z,13.80
2023-05-10T00:38:54.623Z,13.80
2023-05-10T00:39:06.568Z,13.80
2023-05-10T00:39:18.260Z,13.80
2023-05-10T00:39:29.990Z,13.80
2023-05-10T00:39:41.723Z,13.80
2023-05-10T00:39:53.452Z,13.80
2023-05-10T00:40:06.466Z,13.80
2023-05-10T00:40:18.502Z,13.80
2023-05-10T00:40:31.480Z,13.80
2023-05-10T00:40:43.241Z,13.80
2023-05-10T00:40:54.981Z,13.80
2023-05-10T00:41:06.818Z,13.70
2023-05-10T00:41:18.619Z,13.80
2023-05-10T00:41:33.382Z,13.80
2023-05-10T00:41:45.116Z,13.80
2023-05-10T00:41:56.890Z,13.80
2023-05-10T00:42:08.560Z,13.80
2023-05-10T00:42:20.220Z,13.70
2023-05-10T00:42:31.945Z,13.70
2023-05-10T00:42:43.697Z,13.80
2023-05-10T00:42:55.553Z,13.70
2023-05-10T00:43:07.346Z,13.70
2023-05-10T00:43:19.070Z,13.70
2023-05-10T00:43:30.886Z,13.70
2023-05-10T00:43:42.781Z,13.70
2023-05-10T00:43:54.536Z,13.70
2023-05-10T00:44:06.718Z,13.80
2023-05-10T00:44:19.589Z,13.70
2023-05-10T00:44:31.919Z,13.70
2023-05-10T00:44:43.583Z,13.70
2023-05-10T00:44:55.849Z,13.70
2023-05-10T00:45:08.490Z,13.70
2023-05-10T00:45:20.309Z,13.80
2023-05-10T00:45:34.867Z,13.80
2023-05-10T00:45:46.715Z,13.70
2023-05-10T00:45:58.486Z,13.70
2023-05-10T00:46:10.418Z,13.70
2023-05-10T00:46:22.513Z,13.80
2023-05-10T00:46:34.454Z,13.70
2023-05-10T00:46:46.503Z,13.70
2023-05-10T00:46:58.359Z,13.70
2023-05-10T00:47:10.130Z,13.80
2023-05-10T00:47:21.861Z,13.70
2023-05-10T00:47:33.849Z,13.70
2023-05-10T00:47:45.622Z,13.80
2023-05-10T00:47:57.608Z,13.70
2023-05-10T00:48:09.701Z,13.70
2023-05-10T00:48:21.496Z,13.80
2023-05-10T00:48:33.313Z,13.70
2023-05-10T00:48:44.981Z,13.80
2023-05-10T00:48:56.669Z,13.80
2023-05-10T00:49:08.423Z,13.80
2023-05-10T00:49:20.432Z,13.80
2023-05-10T00:49:32.223Z,13.80
2023-05-10T00:49:44.341Z,13.80
2023-05-10T00:49:56.776Z,13.80
2023-05-10T00:50:09.887Z,13.80
2023-05-10T00:50:23.007Z,13.80
2023-05-10T00:50:34.782Z,13.80
2023-05-10T00:50:46.821Z,13.80
2023-05-10T00:50:58.593Z,13.80
2023-05-10T00:51:10.566Z,13.80
2023-05-10T00:51:22.254Z,13.80
2023-05-10T00:51:34.085Z,13.80
2023-05-10T00:51:46.136Z,13.90
2023-05-10T00:51:58.133Z,13.90
2023-05-10T00:52:10.361Z,13.90
2023-05-10T00:52:24.271Z,13.90
2023-05-10T00:52:36.074Z,13.90
2023-05-10T00:52:47.900Z,13.90
2023-05-10T00:53:00.260Z,13.90
2023-05-10T00:53:11.997Z,13.90
2023-05-10T00:53:23.976Z,13.90
2023-05-10T00:53:35.888Z,13.90
2023-05-10T00:53:47.831Z,13.90
2023-05-10T00:53:59.556Z,13.90
2023-05-10T00:54:12.929Z,13.90
2023-05-10T00:54:24.644Z,13.90
2023-05-10T00:54:36.507Z,13.90
2023-05-10T00:54:48.641Z,13.90
2023-05-10T00:55:00.484Z,13.90
2023-05-10T00:55:12.224Z,13.90
2023-05-10T00:55:24.145Z,13.90
2023-05-10T00:55:36.043Z,13.90
2023-05-10T00:55:47.994Z,13.90
2023-05-10T00:56:00.519Z,13.90
2023-05-10T00:56:13.401Z,13.90
2023-05-10T00:56:25.694Z,13.90
2023-05-10T00:56:37.685Z,13.90
2023-05-10T00:56:50.450Z,13.90
2023-05-10T00:57:02.374Z,13.90
2023-05-10T00:57:14.217Z,13.90
2023-05-10T00:57:25.917Z,13.90
2023-05-10T00:57:37.663Z,13.90
2023-05-10T00:57:49.416Z,13.90
2023-05-10T00:58:01.112Z,14.00
2023-05-10T00:58:13.248Z,13.90
2023-05-10T00:58:32.116Z,14.00
2023-05-10T00:58:44.039Z,14.00
2023-05-10T00:58:55.831Z,14.00
2023-05-10T00:59:10.636Z,14.00
2023-05-10T00:59:22.415Z,14.00
2023-05-10T00:59:34.248Z,13.90
2023-05-10T00:59:46.010Z,13.90
2023-05-10T00:59:58.746Z,13.90
2023-05-10T01:00:12.342Z,13.90
2023-05-10T01:00:24.068Z,13.90
2023-05-10T01:00:35.793Z,13.90
2023-05-10T01:00:47.682Z,13.90
2023-05-10T01:00:59.440Z,13.90
2023-05-10T01:01:11.723Z,13.90
2023-05-10T01:01:23.453Z,13.90
2023-05-10T01:01:36.722Z,13.90
2023-05-10T01:01:48.634Z,13.90
2023-05-10T01:02:00.453Z,13.90
2023-05-10T01:02:12.537Z,13.80
2023-05-10T01:02:24.830Z,13.90
2023-05-10T01:02:36.737Z,13.80
2023-05-10T01:02:48.829Z,13.80
2023-05-10T01:03:01.133Z,13.80
2023-05-10T01:03:13.181Z,13.90
2023-05-10T01:03:26.167Z,13.80
2023-05-10T01:03:37.960Z,13.80
2023-05-10T01:03:49.698Z,13.80
2023-05-10T01:04:01.677Z,13.80
2023-05-10T01:04:16.478Z,13.80
2023-05-10T01:04:28.312Z,13.80
2023-05-10T01:04:40.657Z,13.80
2023-05-10T01:04:52.922Z,13.90
2023-05-10T01:05:05.028Z,13.90
2023-05-10T01:05:16.859Z,13.90
2023-05-10T01:05:28.717Z,13.90
2023-05-10T01:05:40.426Z,13.90
2023-05-10T01:05:52.116Z,13.90
2023-05-10T01:06:04.496Z,13.90
2023-05-10T01:06:16.392Z,13.90
2023-05-10T01:06:28.866Z,13.90
2023-05-10T01:06:41.403Z,13.90
2023-05-10T01:06:54.789Z,13.90
2023-05-10T01:07:06.570Z,13.90
2023-05-10T01:07:18.334Z,13.90
2023-05-10T01:07:30.593Z,13.90
2023-05-10T01:07:42.577Z,13.90
2023-05-10T01:07:54.401Z,13.90
2023-05-10T01:08:07.326Z,13.90
2023-05-10T01:08:19.009Z,13.90
2023-05-10T01:08:30.851Z,13.90
2023-05-10T01:08:42.553Z,13.90
2023-05-10T01:08:54.872Z,13.90
2023-05-10T01:09:07.532Z,13.90
2023-05-10T01:09:19.716Z,13.90
2023-05-10T01:09:31.636Z,13.90
2023-05-10T01:09:43.370Z,13.90
2023-05-10T01:09:55.124Z,13.90
2023-05-10T01:10:08.611Z,14.00
2023-05-10T01:10:20.553Z,14.00
2023-05-10T01:10:32.458Z,14.00
2023-05-10T01:10:44.168Z,14.00
2023-05-10T01:10:56.066Z,14.00
2023-05-10T01:11:07.922Z,14.00
2023-05-10T01:11:19.621Z,14.00
2023-05-10T01:11:31.284Z,14.00
2023-05-10T01:11:42.985Z,14.00
2023-05-10T01:11:57.751Z,14.00
2023-05-10T01:12:09.675Z,14.00
2023-05-10T01:12:22.023Z,14.00
2023-05-10T01:12:35.838Z,14.00
2023-05-10T01:12:48.119Z,14.00
2023-05-10T01:13:00.177Z,14.00
2023-05-10T01:13:12.234Z,14.00
2023-05-10T01:13:37.234Z,14.00
2023-05-10T01:13:55.889Z,14.00
2023-05-10T01:14:07.708Z,14.00
2023-05-10T01:14:19.885Z,14.10
2023-05-10T01:14:31.712Z,14.10
2023-05-10T01:14:43.676Z,14.10
2023-05-10T01:14:55.361Z,14.10
2023-05-10T01:15:08.085Z,14.10
2023-05-10T01:15:19.838Z,14.10
2023-05-10T01:15:31.848Z,14.10
2023-05-10T01:15:43.556Z,14.10
2023-05-10T01:15:55.372Z,14.00
2023-05-10T01:16:07.775Z,14.00
2023-05-10T01:16:19.661Z,14.10
2023-05-10T01:16:34.005Z,14.10
2023-05-10T01:16:45.844Z,14.10
2023-05-10T01:16:57.581Z,14.00
2023-05-10T01:17:10.356Z,14.00
2023-05-10T01:17:22.272Z,14.00
2023-05-10T01:17:34.128Z,14.00
2023-05-10T01:17:46.424Z,14.00
2023-05-10T01:17:58.422Z,14.00
2023-05-10T01:18:10.404Z,14.00
2023-05-10T01:18:22.666Z,14.00
2023-05-10T01:18:38.960Z,14.00
2023-05-10T01:18:50.737Z,14.00
2023-05-10T01:19:02.461Z,14.00
2023-05-10T01:19:21.455Z,14.00
2023-05-10T01:19:36.013Z,14.00
2023-05-10T01:19:47.793Z,14.00
2023-05-10T01:19:59.472Z,14.00
2023-05-10T01:20:11.547Z,14.00
2023-05-10T01:20:23.565Z,14.00
2023-05-10T01:20:39.165Z,14.10
2023-05-10T01:20:58.938Z,14.10
2023-05-10T01:21:43.918Z,14.00
2023-05-10T01:22:14.051Z,14.10
2023-05-10T01:22:59.049Z,14.10
2023-05-10T01:23:36.852Z,14.10
2023-05-10T01:24:07.170Z,14.10
2023-05-10T01:24:52.653Z,14.10
2023-05-10T01:25:10.294Z,14.10
2023-05-10T01:26:00.439Z,14.10
2023-05-10T01:26:25.528Z,14.10
2023-05-10T01:26:55.633Z,14.10
2023-05-10T01:27:37.377Z,14.10
2023-05-10T01:28:08.226Z,14.10
2023-05-10T01:28:54.110Z,14.10
2023-05-10T01:29:15.079Z,14.10
2023-05-10T01:29:45.273Z,14.10
2023-05-10T01:30:32.528Z,14.10
2023-05-10T01:31:02.954Z,14.20
2023-05-10T01:31:25.520Z,14.20
2023-05-10T01:31:52.295Z,14.20
2023-05-10T01:32:06.800Z,14.20
2023-05-10T01:32:38.267Z,14.20
2023-05-10T01:32:56.032Z,14.20
2023-05-10T01:33:20.209Z,14.20
2023-05-10T01:33:35.694Z,14.20
2023-05-10T01:33:55.957Z,14.20
2023-05-10T01:34:13.205Z,14.20
2023-05-10T01:34:26.643Z,14.10
2023-05-10T01:34:47.398Z,14.20
2023-05-10T01:35:07.447Z,14.20
2023-05-10T01:35:27.398Z,14.20
2023-05-10T01:36:27.224Z,14.20
2023-05-10T01:36:48.387Z,14.20
2023-05-10T01:37:08.905Z,14.10
2023-05-10T01:37:29.867Z,14.10
2023-05-10T01:38:27.762Z,14.20
2023-05-10T01:39:19.013Z,14.10
2023-05-10T01:39:38.213Z,14.10
2023-05-10T01:39:54.501Z,14.10
2023-05-10T01:40:45.196Z,14.10
2023-05-10T01:50:29.892Z,14.30
2023-05-10T01:53:35.264Z,14.30
2023-05-10T02:02:40.834Z,14.40
2023-05-10T02:03:44.050Z,14.40
2023-05-10T02:03:56.428Z,14.40
2023-05-10T02:04:08.799Z,14.30
2023-05-10T02:04:20.581Z,14.30
2023-05-10T02:04:32.324Z,14.30
2023-05-10T02:04:44.217Z,14.30
2023-05-10T02:04:56.413Z,14.30
2023-05-10T02:05:08.600Z,14.30
2023-05-10T02:05:20.450Z,14.30
2023-05-10T02:05:32.315Z,14.30
2023-05-10T02:05:46.053Z,14.30
2023-05-10T02:05:57.764Z,14.30
2023-05-10T02:06:10.351Z,14.30
2023-05-10T02:06:22.091Z,14.30
2023-05-10T02:06:34.017Z,14.40
2023-05-10T02:06:46.102Z,14.30
2023-05-10T02:06:57.954Z,14.30
2023-05-10T02:07:09.714Z,14.30
2023-05-10T02:07:21.418Z,14.30
2023-05-10T02:07:34.037Z,14.30
2023-05-10T02:07:45.825Z,14.30
2023-05-10T02:07:57.916Z,14.30
2023-05-10T02:08:09.762Z,14.30
2023-05-10T02:08:22.009Z,14.30
2023-05-10T02:08:34.474Z,14.40
2023-05-10T02:08:47.061Z,14.30
2023-05-10T02:08:58.889Z,14.30
2023-05-10T02:09:11.689Z,14.30
2023-05-10T02:09:23.522Z,14.30
2023-05-10T02:09:35.463Z,14.30
2023-05-10T02:09:50.102Z,14.20
2023-05-10T02:10:01.847Z,14.20
2023-05-10T02:10:13.835Z,14.20
2023-05-10T02:10:26.083Z,14.20
2023-05-10T02:10:38.046Z,14.20
2023-05-10T02:10:52.971Z,14.20
2023-05-10T02:11:04.759Z,14.20
2023-05-10T02:11:16.529Z,14.20
2023-05-10T02:11:28.737Z,14.20
2023-05-10T02:11:40.601Z,14.20
2023-05-10T02:11:52.807Z,14.20
2023-05-10T02:12:05.526Z,14.20
2023-05-10T02:12:17.548Z,14.20
2023-05-10T02:12:29.865Z,14.20
2023-05-10T02:12:45.970Z,14.20
2023-05-10T02:12:59.664Z,14.20
2023-05-10T02:13:11.545Z,14.20
2023-05-10T02:13:24.387Z,14.20
2023-05-10T02:13:36.367Z,14.20
2023-05-10T02:13:49.080Z,14.20
2023-05-10T02:14:01.069Z,14.20
2023-05-10T02:14:12.824Z,14.20
2023-05-10T02:14:25.478Z,14.20
2023-05-10T02:14:37.351Z,14.20
2023-05-10T02:14:49.220Z,14.20
2023-05-10T02:15:01.090Z,14.20
2023-05-10T02:15:13.489Z,14.20
2023-05-10T02:15:25.718Z,14.20
2023-05-10T02:15:37.559Z,14.20
2023-05-10T02:15:49.326Z,14.20
2023-05-10T02:16:01.166Z,14.20
2023-05-10T02:16:13.139Z,14.30
2023-05-10T02:16:27.591Z,14.20
2023-05-10T02:16:39.313Z,14.30
2023-05-10T02:16:51.802Z,14.30
2023-05-10T02:17:05.358Z,14.30
2023-05-10T02:17:17.429Z,14.30
2023-05-10T02:17:29.915Z,14.30
2023-05-10T02:17:41.760Z,14.30
2023-05-10T02:17:54.076Z,14.20
2023-05-10T02:18:06.834Z,14.20
2023-05-10T02:18:19.097Z,14.30
2023-05-10T02:18:31.480Z,14.30
2023-05-10T02:18:43.307Z,14.30
2023-05-10T02:18:55.021Z,14.30
2023-05-10T02:19:06.803Z,14.20
2023-05-10T02:19:18.562Z,14.30
2023-05-10T02:19:30.430Z,14.30
2023-05-10T02:19:42.611Z,14.30
2023-05-10T02:19:54.285Z,14.30
2023-05-10T02:20:06.984Z,14.30
2023-05-10T02:20:18.922Z,14.20
2023-05-10T02:20:30.901Z,14.30
2023-05-10T02:20:43.485Z,14.30
2023-05-10T02:20:55.362Z,14.30
2023-05-10T02:21:07.303Z,14.30
2023-05-10T02:21:19.065Z,14.30
2023-05-10T02:21:31.872Z,14.30
2023-05-10T02:21:43.614Z,14.30
2023-05-10T02:21:55.700Z,14.30
2023-05-10T02:22:07.470Z,14.30
2023-05-10T02:22:19.469Z,14.30
2023-05-10T02:22:31.381Z,14.30
2023-05-10T02:22:43.132Z,14.30
2023-05-10T02:22:57.617Z,14.30
2023-05-10T02:23:09.371Z,14.40
2023-05-10T02:23:21.106Z,14.40
2023-05-10T02:23:32.803Z,14.30
2023-05-10T02:23:44.742Z,14.40
2023-05-10T02:23:56.430Z,14.30
2023-05-10T02:24:08.508Z,14.40
2023-05-10T02:24:20.417Z,14.30
2023-05-10T02:24:32.155Z,14.40
2023-05-10T02:24:43.983Z,14.30
2023-05-10T02:24:56.515Z,14.30
2023-05-10T02:25:08.696Z,14.30
2023-05-10T02:25:21.161Z,14.30
2023-05-10T02:25:33.050Z,14.30
2023-05-10T02:25:45.017Z,14.30
2023-05-10T02:25:57.475Z,14.30
2023-05-10T02:26:09.285Z,14.30
2023-05-10T02:26:22.037Z,14.30
2023-05-10T02:26:34.059Z,14.30
2023-05-10T02:26:45.884Z,14.30
2023-05-10T02:26:58.047Z,14.30
2023-05-10T02:27:09.741Z,14.30
2023-05-10T02:27:21.471Z,14.30
2023-05-10T02:27:33.447Z,14.30
2023-05-10T02:27:45.182Z,14.30
2023-05-10T02:27:57.198Z,14.30
2023-05-10T02:28:09.079Z,14.30
2023-05-10T02:28:20.898Z,14.30
2023-05-10T02:28:32.611Z,14.30
2023-05-10T02:28:44.500Z,14.30
2023-05-10T02:28:56.367Z,14.30
2023-05-10T02:29:08.490Z,14.30
2023-05-10T02:29:20.482Z,14.30
2023-05-10T02:29:32.446Z,14.30
2023-05-10T02:29:44.188Z,14.30
2023-05-10T02:29:56.058Z,14.30
2023-05-10T02:30:08.670Z,14.30
2023-05-10T02:30:20.652Z,14.30
2023-05-10T02:30:32.497Z,14.30
2023-05-10T02:30:44.347Z,14.30
2023-05-10T02:30:56.054Z,14.30
2023-05-10T02:31:08.141Z,14.30
2023-05-10T02:31:20.051Z,14.30
2023-05-10T02:31:33.057Z,14.20
2023-05-10T02:31:44.958Z,14.30
2023-05-10T02:31:56.766Z,14.20
2023-05-10T02:32:08.754Z,14.30
2023-05-10T02:32:20.688Z,14.20
2023-05-10T02:32:32.458Z,14.20
2023-05-10T02:32:44.238Z,14.20
2023-05-10T02:32:55.965Z,14.20
2023-05-10T02:33:07.774Z,14.20
2023-05-10T02:33:20.475Z,14.20
2023-05-10T02:33:32.389Z,14.20
2023-05-10T02:33:44.201Z,14.20
2023-05-10T02:33:55.853Z,14.20
2023-05-10T02:34:07.581Z,14.20
2023-05-10T02:34:19.310Z,14.20
2023-05-10T02:34:31.033Z,14.20
2023-05-10T02:34:43.147Z,14.20
2023-05-10T02:34:54.881Z,14.20
2023-05-10T02:35:07.081Z,14.20
2023-05-10T02:35:18.994Z,14.20
2023-05-10T02:35:30.920Z,14.20
2023-05-10T02:35:42.650Z,14.20
2023-05-10T02:35:54.450Z,14.20
2023-05-10T02:36:06.808Z,14.20
2023-05-10T02:36:18.526Z,14.20
2023-05-10T02:36:30.368Z,14.20
2023-05-10T02:36:42.268Z,14.20
2023-05-10T02:36:54.905Z,14.20
2023-05-10T02:37:07.285Z,14.20
2023-05-10T02:37:20.390Z,14.20
2023-05-10T02:37:32.185Z,14.20
2023-05-10T02:37:43.967Z,14.20
2023-05-10T02:37:56.069Z,14.20
2023-05-10T02:38:07.821Z,14.20
2023-05-10T02:38:20.705Z,14.20
2023-05-10T02:38:32.580Z,14.20
2023-05-10T02:38:44.658Z,14.20
2023-05-10T02:38:56.550Z,14.20
2023-05-10T02:39:10.969Z,14.20
2023-05-10T02:39:23.163Z,14.20
2023-05-10T02:39:34.825Z,14.20
2023-05-10T02:39:50.252Z,14.20
2023-05-10T02:40:04.413Z,14.20
2023-05-10T02:40:16.855Z,14.20
2023-05-10T02:40:29.061Z,14.20
2023-05-10T02:40:40.786Z,14.20
2023-05-10T02:40:52.627Z,14.20
2023-05-10T02:41:04.987Z,14.10
2023-05-10T02:41:16.641Z,14.10
2023-05-10T02:41:28.750Z,14.10
2023-05-10T02:41:41.565Z,14.10
2023-05-10T02:41:53.383Z,14.10
2023-05-10T02:42:05.249Z,14.10
2023-05-10T02:42:20.757Z,14.10
2023-05-10T02:42:33.878Z,14.10
2023-05-10T02:42:45.719Z,14.10
2023-05-10T02:42:57.824Z,14.10
2023-05-10T02:43:12.906Z,14.00
2023-05-10T02:43:27.441Z,14.00
2023-05-10T02:43:39.158Z,14.10
2023-05-10T02:43:52.156Z,14.00
2023-05-10T02:44:04.100Z,14.00
2023-05-10T02:44:16.976Z,14.00
2023-05-10T02:44:28.640Z,14.00
2023-05-10T02:44:40.659Z,14.00
2023-05-10T02:44:54.274Z,14.00
2023-05-10T02:45:12.254Z,14.00
2023-05-10T02:45:25.866Z,14.00
2023-05-10T02:45:39.858Z,14.00
2023-05-10T02:45:51.636Z,14.00
2023-05-10T02:46:03.481Z,14.00
2023-05-10T02:46:15.405Z,14.00
2023-05-10T02:46:27.129Z,14.00
2023-05-10T02:46:39.019Z,14.00
2023-05-10T02:46:50.978Z,14.00
2023-05-10T02:47:02.654Z,14.00
2023-05-10T02:47:14.530Z,14.00
2023-05-10T02:47:26.822Z,14.00
2023-05-10T02:47:38.823Z,14.00
2023-05-10T02:47:50.821Z,14.00
2023-05-10T02:48:02.793Z,14.00
2023-05-10T02:48:14.552Z,14.00
2023-05-10T02:48:26.520Z,14.00
2023-05-10T02:48:39.377Z,14.00
2023-05-10T02:48:51.348Z,14.00
2023-05-10T02:49:03.806Z,14.00
2023-05-10T02:49:15.883Z,14.00
2023-05-10T02:49:27.711Z,14.00
2023-05-10T02:49:39.630Z,14.00
2023-05-10T02:49:51.325Z,14.00
2023-05-10T02:50:03.191Z,14.00
2023-05-10T02:50:15.020Z,14.00
2023-05-10T02:50:28.757Z,14.00
2023-05-10T02:50:40.397Z,14.00
2023-05-10T02:50:52.478Z,14.00
2023-05-10T02:51:06.877Z,14.00
2023-05-10T02:51:19.119Z,14.00
2023-05-10T02:51:35.477Z,14.00
2023-05-10T02:51:51.818Z,14.00
2023-05-10T02:52:06.314Z,14.00
2023-05-10T02:52:28.473Z,13.90
2023-05-10T02:52:45.734Z,13.90
2023-05-10T02:53:01.582Z,13.90
2023-05-10T02:53:16.739Z,13.90
2023-05-10T02:53:37.914Z,13.90
2023-05-10T02:53:49.559Z,13.80
2023-05-10T02:54:22.180Z,13.80
2023-05-10T02:54:34.744Z,13.80
2023-05-10T02:54:46.895Z,13.80
2023-05-10T02:55:02.015Z,13.80
2023-05-10T02:55:16.877Z,13.80
2023-05-10T02:55:33.482Z,13.80
2023-05-10T02:55:45.201Z,13.80
2023-05-10T02:55:58.578Z,13.80
2023-05-10T02:56:15.664Z,13.80
2023-05-10T02:56:31.357Z,13.80
2023-05-10T02:56:45.995Z,13.80
2023-05-10T02:56:58.823Z,13.80
2023-05-10T02:57:10.794Z,13.80
2023-05-10T02:57:29.810Z,13.80
2023-05-10T02:57:58.473Z,13.80
2023-05-10T02:58:10.129Z,13.80
2023-05-10T02:58:22.076Z,13.80
2023-05-10T02:58:33.961Z,13.80
2023-05-10T02:58:45.777Z,13.80
2023-05-10T02:58:57.589Z,13.80
2023-05-10T02:59:09.381Z,13.90
2023-05-10T02:59:21.428Z,13.80
2023-05-10T02:59:33.712Z,13.90
2023-05-10T02:59:46.483Z,13.80
2023-05-10T02:59:58.610Z,13.90
2023-05-10T03:00:10.840Z,13.90
2023-05-10T03:00:22.710Z,13.80
2023-05-10T03:00:34.647Z,13.80
2023-05-10T03:00:47.340Z,13.80
2023-05-10T03:00:59.323Z,13.80
2023-05-10T03:01:11.178Z,13.80
2023-05-10T03:01:22.984Z,13.80
2023-05-10T03:01:34.912Z,13.80
2023-05-10T03:01:46.706Z,13.80
2023-05-10T03:01:58.395Z,13.80
2023-05-10T03:02:10.502Z,13.80
2023-05-10T03:02:22.301Z,13.80
2023-05-10T03:02:34.109Z,13.80
2023-05-10T03:02:45.893Z,13.80
2023-05-10T03:02:57.801Z,13.70
2023-05-10T03:03:09.665Z,13.80
2023-05-10T03:03:22.091Z,13.70
2023-05-10T03:03:34.006Z,13.70
2023-05-10T03:03:45.766Z,13.70
2023-05-10T03:03:57.597Z,13.70
2023-05-10T03:04:09.282Z,13.70
2023-05-10T03:04:21.599Z,13.70
2023-05-10T03:04:33.309Z,13.70
2023-05-10T03:04:45.106Z,13.70
2023-05-10T03:04:57.180Z,13.70
2023-05-10T03:05:09.212Z,13.60
2023-05-10T03:05:21.473Z,13.60
2023-05-10T03:05:34.105Z,13.60
2023-05-10T03:05:46.056Z,13.60
2023-05-10T03:05:58.908Z,13.60
2023-05-10T03:06:10.666Z,13.70
2023-05-10T03:06:22.434Z,13.60
2023-05-10T03:06:34.222Z,13.60
2023-05-10T03:06:45.956Z,13.60
2023-05-10T03:06:57.782Z,13.60
2023-05-10T03:07:09.466Z,13.60
2023-05-10T03:07:22.266Z,13.60
2023-05-10T03:07:34.403Z,13.60
2023-05-10T03:07:46.796Z,13.60
2023-05-10T03:07:58.614Z,13.60
2023-05-10T03:08:10.351Z,13.60
2023-05-10T03:08:22.716Z,13.60
2023-05-10T03:08:35.078Z,13.60
2023-05-10T03:08:46.817Z,13.60
2023-05-10T03:08:58.624Z,13.60
2023-05-10T03:09:12.055Z,13.60
2023-05-10T03:09:23.897Z,13.60
2023-05-10T03:09:36.001Z,13.60
2023-05-10T03:09:49.124Z,13.70
2023-05-10T03:10:01.176Z,13.70
2023-05-10T03:10:12.906Z,13.60
2023-05-10T03:10:28.320Z,13.60
2023-05-10T03:10:45.566Z,13.60
2023-05-10T03:11:08.766Z,13.60
2023-05-10T03:11:38.736Z,13.60
2023-05-10T03:12:02.650Z,13.60
2023-05-10T03:12:23.281Z,13.60
2023-05-10T03:12:58.085Z,13.60
2023-05-10T03:13:38.794Z,13.60
2023-05-10T03:14:07.358Z,13.60
2023-05-10T03:14:46.355Z,13.60
2023-05-10T03:15:33.562Z,13.60
2023-05-10T03:16:01.472Z,13.50